»·PEaware :: N149CD KCRQ-KVNY

N149CD :: KCRQ-KVNY

FLIGHT INFORMATION

Flight Status: Arrived
Operator: Privately registered:
United States
More flights under this callsign
Pilot: Nathan E. (30132)
Aircraft: CIRRUS VISIONJET
(SF50)
More flights by this aircraft type
Origin: KCRQ McClellan-Palomar
United States
Destination: KVNY Van Nuys
United States
More flights between these airports :: More routes between these airports
Route: CWARD2 LAX CANOG
File this flight plan on PilotEdge
Remarks: TEC route SANP16R
Altitude:
(Current/Filed)
10,000ft
Speed:
(Current/Filed)
250kts
Departed: 24-Dec-20 03:41 PM
Arrived: 24-Dec-20 04:12 PM
Distance/Time
Traveled:
89nm/0:31
Distance/Time
To Go:
Arrived

Flight Plot

Page will automatically refresh every two minutes.

Flight plan parsing failed; only flown route is shown


Map Options




Map Legend


Flown Route
Filed Route
Departure Airport
Arrival Airport
Navaid (VOR, NDB)
Fix

Horizontal Profiles

Position Reports

Time Latitude Longitude Heading Altitude Ground
Speed
24-Dec-20 15:22 33.127628 -117.276435 258 309ft 0kts
24-Dec-20 15:23 33.127628 -117.276435 258 309ft 0kts
24-Dec-20 15:24 33.127628 -117.276435 258 309ft 0kts
24-Dec-20 15:25 33.127628 -117.276435 258 309ft 0kts
24-Dec-20 15:26 33.127628 -117.276435 258 309ft 0kts
24-Dec-20 15:27 33.127628 -117.276435 258 309ft 0kts
24-Dec-20 15:28 33.127628 -117.276435 258 309ft 0kts
24-Dec-20 15:29 33.127628 -117.276435 258 309ft 0kts
24-Dec-20 15:30 33.127628 -117.276435 258 309ft 0kts
24-Dec-20 15:31 33.127628 -117.276435 258 309ft 0kts
24-Dec-20 15:32 33.127628 -117.276435 258 309ft 0kts
24-Dec-20 15:33 33.127628 -117.276435 258 309ft 0kts
24-Dec-20 15:34 33.127628 -117.276435 258 309ft 0kts
24-Dec-20 15:35 33.127628 -117.276435 258 309ft 0kts
24-Dec-20 15:36 33.127887 -117.277253 259 309ft 13kts
24-Dec-20 15:37 33.126876 -117.283508 259 313ft 12kts
24-Dec-20 15:38 33.126180 -117.286599 321 305ft 0kts
24-Dec-20 15:39 33.126656 -117.287746 342 298ft 7kts
24-Dec-20 15:40 33.129878 -117.269651 78 454ft 153kts
24-Dec-20 15:41 33.156449 -117.271154 267 2736ft 172kts
24-Dec-20 15:42 33.142272 -117.341581 256 3093ft 258kts
24-Dec-20 15:43 33.125323 -117.425500 255 5669ft 265kts
24-Dec-20 15:44 33.107831 -117.511855 254 7914ft 271kts
24-Dec-20 15:45 33.089995 -117.599496 253 9883ft 272kts
24-Dec-20 15:46 33.070714 -117.693829 253 10054ft 309kts
24-Dec-20 15:47 33.113935 -117.780547 317 10054ft 335kts
24-Dec-20 15:48 33.184970 -117.852778 321 10054ft 335kts
24-Dec-20 15:49 33.274145 -117.881644 347 10059ft 336kts
24-Dec-20 15:50 33.365432 -117.904651 348 10070ft 336kts
24-Dec-20 15:51 33.442250 -117.964412 317 10073ft 331kts
24-Dec-20 15:52 33.509994 -118.028548 320 10071ft 334kts
24-Dec-20 15:53 33.578499 -118.093451 320 10066ft 336kts
24-Dec-20 15:54 33.646247 -118.157823 321 10064ft 326kts
24-Dec-20 15:55 33.710141 -118.218669 321 10063ft 306kts
24-Dec-20 15:56 33.772236 -118.277926 321 10065ft 299kts
24-Dec-20 15:57 33.833205 -118.336219 321 10050ft 298kts
24-Dec-20 15:58 33.894186 -118.394627 320 10052ft 299kts
24-Dec-20 15:59 33.950991 -118.441512 333 10046ft 228kts
24-Dec-20 16:00 33.999851 -118.469146 334 10044ft 195kts
24-Dec-20 16:01 34.045774 -118.494765 335 9965ft 198kts
24-Dec-20 16:02 34.092503 -118.520872 336 8789ft 199kts
24-Dec-20 16:03 34.139121 -118.546939 338 7391ft 195kts
24-Dec-20 16:04 34.180098 -118.546158 77 6004ft 168kts
24-Dec-20 16:05 34.160205 -118.501519 122 4630ft 167kts
24-Dec-20 16:06 34.128156 -118.486291 234 4011ft 155kts
24-Dec-20 16:07 34.142590 -118.510930 34 2713ft 103kts
24-Dec-20 16:08 34.157869 -118.493133 28 1619ft 85kts
24-Dec-20 16:10 34.179197 -118.487533 0 1104ft 82kts
24-Dec-20 16:11 34.199691 -118.489434 357 807ft 59kts
24-Dec-20 16:12 34.206597 -118.490813 266 805ft 0kts
24-Dec-20 16:13 34.206401 -118.492557 182 805ft 4kts
24-Dec-20 16:14 34.206295 -118.492558 181 805ft 0kts

Navigation Log

Ident Type
Flight plan parsing failed, navigation log unavailable